createdAt,value
2022-11-04T00:01:30.140Z,9.00
2022-11-04T00:03:59.769Z,9.03
2022-11-04T00:06:27.844Z,9.17
2022-11-04T00:08:56.667Z,8.50
2022-11-04T00:11:42.575Z,8.67
2022-11-04T00:14:11.161Z,9.33
2022-11-04T00:16:56.772Z,8.63
2022-11-04T00:19:26.723Z,9.50
2022-11-04T00:22:12.635Z,9.13
2022-11-04T00:25:12.529Z,8.43
2022-11-04T00:27:58.030Z,9.57
2022-11-04T00:30:26.111Z,8.27
2022-11-04T00:33:11.641Z,8.93
2022-11-04T00:35:41.101Z,10.30
2022-11-04T00:38:09.628Z,9.67
2022-11-04T00:40:38.132Z,9.67
2022-11-04T00:43:06.215Z,9.33
2022-11-04T00:45:34.370Z,9.17
2022-11-04T00:48:02.453Z,8.40
2022-11-04T00:50:30.571Z,9.40
2022-11-04T00:53:01.720Z,9.20
2022-11-04T00:55:29.938Z,9.27
2022-11-04T00:57:59.172Z,8.17
2022-11-04T01:00:27.300Z,9.47
2022-11-04T01:02:55.531Z,9.43
2022-11-04T01:05:23.684Z,8.90
2022-11-04T01:07:51.946Z,8.70
2022-11-04T01:10:21.448Z,9.03
2022-11-04T01:12:49.635Z,8.90
2022-11-04T01:15:17.804Z,9.10
2022-11-04T01:17:45.892Z,9.63
2022-11-04T01:20:14.536Z,8.60
2022-11-04T01:22:42.629Z,8.80
2022-11-04T01:25:11.231Z,9.23
2022-11-04T01:27:41.160Z,9.23
2022-11-04T01:30:10.863Z,9.07
2022-11-04T01:32:39.142Z,8.47
2022-11-04T01:35:08.399Z,8.53
2022-11-04T01:37:36.476Z,8.63
2022-11-04T01:40:04.893Z,9.13
2022-11-04T01:42:32.964Z,8.40
2022-11-04T01:45:02.463Z,7.40
2022-11-04T01:47:32.695Z,8.20
2022-11-04T01:50:04.604Z,8.03
2022-11-04T01:52:35.026Z,8.60
2022-11-04T01:55:05.316Z,8.10
2022-11-04T01:57:35.687Z,8.20
2022-11-04T02:00:07.476Z,7.53
2022-11-04T02:02:36.109Z,7.73
2022-11-04T02:05:05.031Z,7.00
2022-11-04T02:07:33.349Z,7.80
2022-11-04T02:10:01.432Z,7.60
2022-11-04T02:12:47.041Z,7.93
2022-11-04T02:15:16.638Z,6.93
2022-11-04T02:18:00.551Z,7.80
2022-11-04T02:20:31.184Z,7.40
2022-11-04T02:23:33.608Z,7.03
2022-11-04T02:26:38.453Z,8.00
2022-11-04T02:29:32.141Z,7.80
2022-11-04T02:32:07.970Z,7.97
2022-11-04T02:34:41.336Z,7.90
2022-11-04T02:37:14.146Z,8.30
2022-11-04T02:39:49.822Z,8.00
2022-11-04T02:42:21.905Z,7.77
2022-11-04T02:44:53.121Z,8.80
2022-11-04T02:47:22.292Z,7.73
2022-11-04T02:49:52.861Z,9.37
2022-11-04T02:52:22.589Z,8.10
2022-11-04T02:54:52.235Z,7.57
2022-11-04T02:57:23.238Z,8.40
2022-11-04T02:59:55.041Z,8.43
2022-11-04T03:02:26.575Z,8.53
2022-11-04T03:04:54.696Z,7.67
2022-11-04T03:07:25.825Z,8.10
2022-11-04T03:09:56.739Z,8.07
2022-11-04T03:12:26.984Z,7.67
2022-11-04T03:14:57.486Z,7.77
2022-11-04T03:17:28.491Z,8.37
2022-11-04T03:19:58.517Z,8.60
2022-11-04T03:22:27.424Z,8.50
2022-11-04T03:24:55.561Z,8.00
2022-11-04T03:27:25.322Z,8.37
2022-11-04T03:29:58.501Z,7.23
2022-11-04T03:32:28.518Z,8.33
2022-11-04T03:34:56.745Z,8.23
2022-11-04T03:37:24.826Z,7.53
2022-11-04T03:39:52.970Z,7.87
2022-11-04T03:42:23.691Z,7.93
2022-11-04T03:44:52.256Z,7.53
2022-11-04T03:47:23.148Z,7.70
2022-11-04T03:49:51.927Z,7.80
2022-11-04T03:52:20.009Z,8.57
2022-11-04T03:54:48.169Z,8.03
2022-11-04T03:57:28.648Z,7.60
2022-11-04T04:00:08.960Z,8.10
2022-11-04T04:02:43.313Z,7.53
2022-11-04T04:05:17.649Z,7.80
2022-11-04T04:07:49.725Z,8.80
2022-11-04T04:10:37.053Z,7.60
2022-11-04T04:13:09.128Z,7.80
2022-11-04T04:15:40.319Z,7.60
2022-11-04T04:18:11.756Z,8.03
2022-11-04T04:20:40.119Z,8.27
2022-11-04T04:23:29.709Z,8.40
2022-11-04T04:26:16.664Z,8.23
2022-11-04T04:28:44.921Z,8.03
2022-11-04T04:31:12.979Z,7.87
2022-11-04T04:33:42.571Z,7.97
2022-11-04T04:36:10.822Z,9.07
2022-11-04T04:38:56.876Z,8.90
2022-11-04T04:41:45.517Z,9.17
2022-11-04T04:44:32.879Z,9.20
2022-11-04T04:47:00.973Z,9.13
2022-11-04T04:49:35.390Z,8.40
2022-11-04T04:52:03.768Z,8.53
2022-11-04T04:54:31.856Z,8.93
2022-11-04T04:57:00.015Z,8.33
2022-11-04T04:59:28.132Z,8.23
2022-11-04T05:01:56.358Z,7.83
2022-11-04T05:04:24.567Z,8.33
2022-11-04T05:06:54.262Z,8.27
2022-11-04T05:09:22.683Z,7.73
2022-11-04T05:11:50.733Z,8.77
2022-11-04T05:14:19.009Z,7.90
2022-11-04T05:16:47.039Z,8.07
2022-11-04T05:19:15.146Z,8.47
2022-11-04T05:21:43.207Z,8.00
2022-11-04T05:24:12.797Z,8.83
2022-11-04T05:26:40.892Z,8.03
2022-11-04T05:29:10.086Z,8.03
2022-11-04T05:31:38.192Z,8.03
2022-11-04T05:34:06.811Z,8.03
2022-11-04T05:36:35.309Z,7.03
2022-11-04T05:39:03.439Z,8.63
2022-11-04T05:41:32.907Z,7.53
2022-11-04T05:44:02.036Z,8.50
2022-11-04T05:46:30.229Z,7.70
2022-11-04T05:48:58.385Z,7.57
2022-11-04T05:51:27.912Z,7.47
2022-11-04T05:53:56.179Z,6.70
2022-11-04T05:56:24.353Z,7.33
2022-11-04T05:58:54.258Z,7.40
2022-11-04T06:01:27.552Z,6.67
2022-11-04T06:03:55.786Z,6.80
2022-11-04T06:06:24.222Z,7.33
2022-11-04T06:08:52.490Z,7.20
2022-11-04T06:11:21.040Z,7.80
2022-11-04T06:13:49.298Z,7.40
2022-11-04T06:16:19.001Z,7.20
2022-11-04T06:18:47.181Z,7.00
2022-11-04T06:21:25.480Z,8.40
2022-11-04T06:23:54.085Z,7.80
2022-11-04T06:26:26.846Z,8.03
2022-11-04T06:28:56.304Z,7.97
2022-11-04T06:31:25.775Z,7.23
2022-11-04T06:33:54.141Z,6.93
2022-11-04T06:36:22.252Z,6.33
2022-11-04T06:38:50.486Z,6.07
2022-11-04T06:41:18.624Z,5.90
2022-11-04T06:43:46.837Z,5.90
2022-11-04T06:46:29.187Z,6.10
2022-11-04T06:48:57.475Z,6.10
2022-11-04T06:51:25.919Z,5.40
2022-11-04T06:53:54.141Z,5.37
2022-11-04T06:56:22.315Z,5.43
2022-11-04T06:58:50.550Z,5.20
2022-11-04T07:01:22.148Z,5.60
2022-11-04T07:03:52.380Z,5.83
2022-11-04T07:06:20.580Z,5.53
2022-11-04T07:08:49.092Z,5.50
2022-11-04T07:11:17.182Z,5.00
2022-11-04T07:13:45.422Z,4.90
2022-11-04T07:16:13.477Z,6.07
2022-11-04T07:18:41.650Z,5.20
2022-11-04T07:21:11.356Z,5.30
2022-11-04T07:23:39.426Z,5.67
2022-11-04T07:26:08.519Z,6.17
2022-11-04T07:28:36.737Z,5.53
2022-11-04T07:31:05.517Z,5.63
2022-11-04T07:33:33.981Z,5.90
2022-11-04T07:36:05.026Z,5.00
2022-11-04T07:38:34.655Z,5.63
2022-11-04T07:41:02.708Z,5.37
2022-11-04T07:43:31.031Z,5.20
2022-11-04T07:46:02.556Z,5.33
2022-11-04T07:48:31.098Z,5.30
2022-11-04T07:50:59.823Z,5.13
2022-11-04T07:53:28.288Z,6.13
2022-11-04T07:55:57.818Z,5.70
2022-11-04T07:58:26.350Z,5.33
2022-11-04T08:00:59.797Z,5.20
2022-11-04T08:03:28.143Z,5.30
2022-11-04T08:05:57.569Z,5.17
2022-11-04T08:08:25.708Z,5.77
2022-11-04T08:10:55.048Z,5.27
2022-11-04T08:13:24.611Z,5.97
2022-11-04T08:15:52.729Z,5.33
2022-11-04T08:18:20.894Z,5.83
2022-11-04T08:20:50.138Z,5.33
2022-11-04T08:23:18.543Z,5.60
2022-11-04T08:25:46.636Z,5.33
2022-11-04T08:28:17.828Z,4.93
2022-11-04T08:30:55.710Z,5.10
2022-11-04T08:33:24.705Z,5.20
2022-11-04T08:35:52.757Z,6.03
2022-11-04T08:38:21.097Z,5.47
2022-11-04T08:40:49.228Z,5.80
2022-11-04T08:43:17.262Z,6.40
2022-11-04T08:45:46.337Z,5.80
2022-11-04T08:48:16.576Z,6.37
2022-11-04T08:50:44.743Z,6.20
2022-11-04T08:53:12.811Z,5.60
2022-11-04T08:55:40.926Z,6.80
2022-11-04T08:58:09.359Z,6.37
2022-11-04T09:00:37.763Z,6.13
2022-11-04T09:03:06.139Z,6.30
2022-11-04T09:05:37.109Z,5.90
2022-11-04T09:08:05.528Z,6.07
2022-11-04T09:10:33.599Z,6.00
2022-11-04T09:13:01.647Z,6.23
2022-11-04T09:15:29.761Z,6.20
2022-11-04T09:17:57.803Z,5.73
2022-11-04T09:20:27.622Z,6.37
2022-11-04T09:22:57.248Z,6.30
2022-11-04T09:25:25.478Z,6.70
2022-11-04T09:27:53.587Z,6.47
2022-11-04T09:30:21.707Z,6.00
2022-11-04T09:32:52.748Z,6.43
2022-11-04T09:35:21.183Z,6.33
2022-11-04T09:37:50.625Z,6.50
2022-11-04T09:40:21.365Z,6.60
2022-11-04T09:42:58.229Z,6.60
2022-11-04T09:45:27.806Z,6.13
2022-11-04T09:47:58.570Z,7.10
2022-11-04T09:50:27.974Z,6.53
2022-11-04T09:52:58.144Z,7.23
2022-11-04T09:55:30.847Z,7.03
2022-11-04T09:57:59.235Z,7.77
2022-11-04T10:00:27.368Z,8.13
2022-11-04T10:03:03.028Z,7.57
2022-11-04T10:05:42.945Z,7.07
2022-11-04T10:08:37.727Z,7.17
2022-11-04T10:11:09.949Z,7.10
2022-11-04T10:13:46.576Z,8.00
2022-11-04T10:16:24.120Z,7.43
2022-11-04T10:19:06.186Z,7.00
2022-11-04T10:21:39.540Z,6.93
2022-11-04T10:24:10.933Z,6.83
2022-11-04T10:26:43.798Z,6.97
2022-11-04T10:29:14.938Z,7.43
2022-11-04T10:31:43.347Z,6.50
2022-11-04T10:34:16.392Z,6.30
2022-11-04T10:36:44.453Z,6.40
2022-11-04T10:39:17.780Z,6.57
2022-11-04T10:41:47.755Z,6.23
2022-11-04T10:44:18.113Z,6.00
2022-11-04T10:46:50.178Z,6.40
2022-11-04T10:49:30.571Z,6.37
2022-11-04T10:51:58.737Z,6.50
2022-11-04T10:54:26.856Z,6.63
2022-11-04T10:56:56.811Z,7.17
2022-11-04T10:59:26.262Z,6.57
2022-11-04T11:01:55.112Z,6.90
2022-11-04T11:04:28.198Z,6.40
2022-11-04T11:06:56.983Z,6.67
2022-11-04T11:09:29.501Z,7.40
2022-11-04T11:12:01.141Z,7.80
2022-11-04T11:14:34.126Z,7.63
2022-11-04T11:17:20.890Z,7.47
2022-11-04T11:19:51.990Z,7.53
2022-11-04T11:22:38.101Z,8.00
2022-11-04T11:25:26.282Z,9.23
2022-11-04T11:27:58.285Z,8.80
2022-11-04T11:30:28.355Z,8.70
2022-11-04T11:32:58.054Z,8.23
2022-11-04T11:35:28.642Z,7.87
2022-11-04T11:37:56.759Z,8.83
2022-11-04T11:40:26.721Z,8.43
2022-11-04T11:42:56.162Z,8.13
2022-11-04T11:45:25.499Z,8.87
2022-11-04T11:47:55.214Z,9.33
2022-11-04T11:50:30.186Z,9.33
2022-11-04T11:53:16.670Z,8.40
2022-11-04T11:55:48.034Z,9.50
2022-11-04T12:01:24.066Z,9.57
2022-11-04T12:09:37.317Z,9.20
2022-11-04T12:12:08.082Z,8.93
2022-11-04T12:14:44.752Z,8.57
2022-11-04T12:17:19.412Z,8.87
2022-11-04T12:20:03.986Z,9.80
2022-11-04T12:22:37.431Z,9.50
2022-11-04T12:25:10.068Z,8.90
2022-11-04T12:27:40.495Z,10.10
2022-11-04T12:30:11.503Z,9.33
2022-11-04T12:32:46.376Z,9.10
2022-11-04T12:35:22.877Z,9.20
2022-11-04T12:37:55.946Z,9.90
2022-11-04T12:40:26.423Z,8.20
2022-11-04T12:43:04.928Z,8.80
2022-11-04T12:45:41.828Z,9.23
2022-11-04T12:48:11.790Z,8.53
2022-11-04T12:50:52.142Z,8.70
2022-11-04T12:53:41.492Z,8.80
2022-11-04T12:56:10.657Z,8.37
2022-11-04T12:58:51.101Z,9.50
2022-11-04T13:01:22.888Z,9.20
2022-11-04T13:03:54.286Z,8.80
2022-11-04T13:06:25.434Z,11.90
2022-11-04T13:08:55.348Z,14.23
2022-11-04T13:11:25.940Z,11.77
2022-11-04T13:14:02.110Z,9.30
2022-11-04T13:16:31.842Z,7.77
2022-11-04T13:19:00.190Z,8.70
2022-11-04T13:21:29.386Z,7.53
2022-11-04T13:23:59.698Z,7.97
2022-11-04T13:26:27.773Z,8.10
2022-11-04T13:29:04.434Z,8.70
2022-11-04T13:31:43.065Z,8.43
2022-11-04T13:34:19.120Z,8.63
2022-11-04T13:36:51.590Z,8.47
2022-11-04T13:39:21.371Z,7.87
2022-11-04T13:42:14.952Z,8.53
2022-11-04T13:44:44.685Z,7.97
2022-11-04T13:47:21.967Z,8.30
2022-11-04T13:49:51.399Z,7.97
2022-11-04T13:52:19.611Z,9.47
2022-11-04T13:54:50.560Z,8.20
2022-11-04T13:57:19.475Z,8.33
2022-11-04T14:00:22.535Z,8.10
2022-11-04T14:02:52.395Z,8.20
2022-11-04T14:06:03.767Z,7.97
2022-11-04T14:08:32.019Z,8.87
2022-11-04T14:11:10.814Z,10.40
2022-11-04T14:13:46.377Z,8.37
2022-11-04T14:16:29.483Z,8.23
2022-11-04T14:18:59.308Z,7.70
2022-11-04T14:21:27.780Z,8.50
2022-11-04T14:23:57.509Z,8.07
2022-11-04T14:26:27.325Z,8.60
2022-11-04T14:29:02.573Z,10.40
2022-11-04T14:31:36.428Z,10.03
2022-11-04T14:34:05.919Z,9.97
2022-11-04T14:36:35.783Z,9.57
2022-11-04T14:39:06.252Z,9.10
2022-11-04T14:41:53.228Z,9.73
2022-11-04T14:44:23.107Z,11.70
2022-11-04T14:46:52.678Z,11.37
2022-11-04T14:49:39.991Z,12.47
2022-11-04T14:52:14.635Z,12.80
2022-11-04T14:54:43.137Z,12.57
2022-11-04T14:57:21.056Z,13.57
2022-11-04T14:59:50.020Z,12.70
2022-11-04T15:02:20.918Z,12.40
2022-11-04T15:04:52.632Z,12.90
2022-11-04T15:07:26.267Z,12.53
2022-11-04T15:09:54.493Z,12.00
2022-11-04T15:12:48.768Z,13.50
2022-11-04T15:15:37.582Z,13.70
2022-11-04T15:18:09.503Z,14.50
2022-11-04T15:20:42.237Z,16.57
2022-11-04T15:23:15.519Z,15.93
2022-11-04T15:25:49.610Z,16.77
2022-11-04T15:28:22.705Z,17.33
2022-11-04T15:31:06.116Z,17.20
2022-11-04T15:33:37.075Z,18.40
2022-11-04T15:36:07.417Z,21.47
2022-11-04T15:38:35.633Z,22.37
2022-11-04T15:41:17.631Z,22.47
2022-11-04T15:43:45.838Z,20.97
2022-11-04T15:46:19.076Z,22.83
2022-11-04T15:49:01.868Z,21.03
2022-11-04T15:51:31.726Z,20.43
2022-11-04T15:54:00.993Z,20.93
2022-11-04T15:56:29.608Z,20.33
2022-11-04T15:58:58.543Z,18.27
2022-11-04T16:01:29.147Z,17.73
2022-11-04T16:03:58.445Z,17.67
2022-11-04T16:06:37.984Z,16.33
2022-11-04T16:09:08.292Z,17.17
2022-11-04T16:11:36.760Z,15.80
2022-11-04T16:14:21.348Z,15.73
2022-11-04T16:16:49.890Z,14.23
2022-11-04T16:19:23.103Z,13.97
2022-11-04T16:21:53.441Z,12.70
2022-11-04T16:24:22.917Z,12.47
2022-11-04T16:26:51.406Z,12.40
2022-11-04T16:29:21.689Z,13.30
2022-11-04T16:32:16.221Z,12.20
2022-11-04T16:34:44.742Z,12.40
2022-11-04T16:37:14.235Z,11.87
2022-11-04T16:39:43.948Z,11.83
2022-11-04T16:42:12.394Z,11.63
2022-11-04T16:44:40.791Z,11.83
2022-11-04T16:47:10.717Z,11.60
2022-11-04T16:49:38.830Z,12.13
2022-11-04T16:52:07.692Z,12.67
2022-11-04T16:54:37.196Z,12.10
2022-11-04T16:57:07.015Z,12.10
2022-11-04T16:59:35.521Z,11.27
2022-11-04T17:02:03.710Z,11.77
2022-11-04T17:04:32.012Z,12.67
2022-11-04T17:07:00.197Z,13.47
2022-11-04T17:09:28.347Z,13.40
2022-11-04T17:11:57.992Z,13.07
2022-11-04T17:14:26.197Z,13.23
2022-11-04T17:16:57.024Z,13.53
2022-11-04T17:19:26.530Z,13.67
2022-11-04T17:21:56.377Z,13.70
2022-11-04T17:24:24.469Z,14.57
2022-11-04T17:26:52.584Z,14.70
2022-11-04T17:29:22.103Z,14.53
2022-11-04T17:31:50.302Z,15.37
2022-11-04T17:34:18.708Z,15.50
2022-11-04T17:36:47.073Z,15.13
2022-11-04T17:39:15.379Z,15.40
2022-11-04T17:42:00.648Z,14.87
2022-11-04T17:44:30.243Z,12.90
2022-11-04T17:47:00.554Z,15.20
2022-11-04T17:49:29.520Z,14.07
2022-11-04T17:52:00.058Z,15.57
2022-11-04T17:54:29.139Z,14.87
2022-11-04T17:56:57.265Z,14.80
2022-11-04T17:59:25.472Z,15.50
2022-11-04T18:01:55.009Z,13.63
2022-11-04T18:04:23.905Z,13.87
2022-11-04T18:06:52.121Z,15.17
2022-11-04T18:09:20.300Z,15.10
2022-11-04T18:12:05.767Z,12.70
2022-11-04T18:14:35.435Z,13.70
2022-11-04T18:17:05.748Z,15.00
2022-11-04T18:19:33.910Z,15.30
2022-11-04T18:22:02.457Z,15.37
2022-11-04T18:24:30.730Z,15.33
2022-11-04T18:26:59.660Z,15.77
2022-11-04T18:29:28.098Z,16.00
2022-11-04T18:31:56.242Z,16.23
2022-11-04T18:34:26.096Z,15.23
2022-11-04T18:36:54.344Z,16.60
2022-11-04T18:39:22.596Z,15.60
2022-11-04T18:41:51.034Z,15.77
2022-11-04T18:44:19.922Z,15.10
2022-11-04T18:46:48.114Z,15.93
2022-11-04T18:49:16.688Z,16.33
2022-11-04T18:51:46.257Z,15.20
2022-11-04T18:54:15.056Z,15.30
2022-11-04T18:56:43.965Z,16.23
2022-11-04T18:59:12.911Z,17.13
2022-11-04T19:01:41.305Z,16.03
2022-11-04T19:04:09.560Z,17.33
2022-11-04T19:06:40.622Z,17.17
2022-11-04T19:09:44.911Z,16.77
2022-11-04T19:12:12.948Z,16.33
2022-11-04T19:14:41.110Z,18.17
2022-11-04T19:17:09.729Z,17.70
2022-11-04T19:19:37.919Z,16.47
2022-11-04T19:22:06.107Z,16.37
2022-11-04T19:24:35.896Z,17.70
2022-11-04T19:27:04.550Z,17.00
2022-11-04T19:29:33.108Z,17.70
2022-11-04T19:32:01.327Z,19.37
2022-11-04T19:34:29.511Z,17.43
2022-11-04T19:36:57.683Z,17.57
2022-11-04T19:39:26.204Z,19.67
2022-11-04T19:42:13.002Z,19.43
2022-11-04T19:44:41.419Z,19.90
2022-11-04T19:47:09.925Z,18.73
2022-11-04T19:49:38.113Z,18.40
2022-11-04T19:52:06.524Z,20.07
2022-11-04T19:54:34.736Z,20.43
2022-11-04T19:57:04.330Z,20.10
2022-11-04T19:59:32.645Z,20.00
2022-11-04T20:02:00.925Z,21.70
2022-11-04T20:04:29.188Z,20.30
2022-11-04T20:06:57.561Z,19.57
2022-11-04T20:09:26.708Z,20.13
2022-11-04T20:12:12.484Z,20.47
2022-11-04T20:14:42.287Z,21.83
2022-11-04T20:17:10.494Z,20.43
2022-11-04T20:19:38.645Z,20.10
2022-11-04T20:22:06.929Z,20.20
2022-11-04T20:24:35.071Z,20.57
2022-11-04T20:27:03.508Z,20.47
2022-11-04T20:29:31.691Z,20.90
2022-11-04T20:32:01.153Z,19.73
2022-11-04T20:34:32.886Z,21.93
2022-11-04T20:37:01.663Z,23.07
2022-11-04T20:39:30.206Z,23.87
2022-11-04T20:41:58.359Z,22.27
2022-11-04T20:44:26.654Z,24.70
2022-11-04T20:46:54.748Z,23.87
2022-11-04T20:49:24.292Z,24.47
2022-11-04T20:51:55.365Z,24.63
2022-11-04T20:54:23.842Z,25.10
2022-11-04T20:56:51.932Z,26.90
2022-11-04T20:59:20.156Z,26.93
2022-11-04T21:01:50.191Z,26.37
2022-11-04T21:04:19.441Z,27.70
2022-11-04T21:06:49.226Z,28.47
2022-11-04T21:09:18.030Z,28.20
2022-11-04T21:11:46.301Z,31.43
2022-11-04T21:14:16.317Z,36.03
2022-11-04T21:16:44.668Z,36.43
2022-11-04T21:19:13.468Z,32.33
2022-11-04T21:21:42.784Z,34.30
2022-11-04T21:24:13.540Z,34.33
2022-11-04T21:26:41.764Z,35.23
2022-11-04T21:29:11.694Z,35.13
2022-11-04T21:31:39.824Z,35.20
2022-11-04T21:34:08.129Z,40.33
2022-11-04T21:36:36.302Z,42.00
2022-11-04T21:39:04.743Z,40.30
2022-11-04T21:41:37.409Z,42.23
2022-11-04T21:44:08.351Z,43.53
2022-11-04T21:46:36.863Z,44.83
2022-11-04T21:49:05.192Z,40.87
2022-11-04T21:51:34.429Z,42.87
2022-11-04T21:54:05.034Z,38.80
2022-11-04T21:56:34.606Z,38.33
2022-11-04T21:59:03.548Z,39.17
2022-11-04T22:01:32.016Z,40.13
2022-11-04T22:04:00.850Z,40.70
2022-11-04T22:06:34.059Z,38.23
2022-11-04T22:09:03.828Z,36.80
2022-11-04T22:11:32.716Z,38.53
2022-11-04T22:14:03.993Z,36.60
2022-11-04T22:16:33.510Z,37.77
2022-11-04T22:19:02.333Z,39.20
2022-11-04T22:21:30.906Z,38.73
2022-11-04T22:23:59.409Z,38.07
2022-11-04T22:26:28.520Z,38.43
2022-11-04T22:28:57.087Z,38.77
2022-11-04T22:31:27.408Z,39.17
2022-11-04T22:33:55.818Z,37.33
2022-11-04T22:36:23.967Z,36.17
2022-11-04T22:38:52.154Z,30.03
2022-11-04T22:41:21.969Z,28.93
2022-11-04T22:43:50.282Z,21.87
2022-11-04T22:46:19.660Z,18.77
2022-11-04T22:48:49.149Z,23.20
2022-11-04T22:51:17.395Z,25.20
2022-11-04T22:53:45.606Z,28.37
2022-11-04T22:56:14.810Z,31.03
2022-11-04T22:58:42.911Z,32.67
2022-11-04T23:01:13.107Z,32.00
2022-11-04T23:03:41.454Z,32.67
2022-11-04T23:06:11.165Z,31.27
2022-11-04T23:08:40.285Z,30.07
2022-11-04T23:11:27.848Z,31.80
2022-11-04T23:14:19.857Z,33.17
2022-11-04T23:17:07.127Z,32.10
2022-11-04T23:19:35.281Z,32.63
2022-11-04T23:22:22.007Z,31.37
2022-11-04T23:25:10.013Z,25.30
2022-11-04T23:28:07.949Z,25.77
2022-11-04T23:30:39.161Z,22.27
2022-11-04T23:33:08.191Z,16.53
2022-11-04T23:35:55.093Z,14.10
2022-11-04T23:38:24.590Z,13.60
2022-11-04T23:41:07.584Z,11.80
2022-11-04T23:43:35.830Z,10.67
2022-11-04T23:46:21.365Z,9.67
2022-11-04T23:49:07.176Z,8.93
2022-11-04T23:51:53.092Z,6.80
2022-11-04T23:54:39.899Z,6.30
2022-11-04T23:57:28.811Z,6.07
